Time;durP1;ratioP1;P1;durP2;ratioP2;P2;SDS_P1;SDS_P2;PMS_P1;PMS_P2;Temp;Humidity;BMP_temperature;BMP_pressure;BME280_temperature;BME280_humidity;BME280_pressure;Samples;Min_cycle;Max_cycle;Signal;HPM_P1;HPM_P2
2023/01/03 05:03:14;;;;;;;4.93;2.47;;;;;;;19.55;63.36;97398.28;23284007;23;20233;-58
2023/01/03 05:13:12;;;;;;;4.03;2.57;;;;;;;19.58;63.66;97415.06;20154410;29;20234;-59
2023/01/03 05:33:31;;;;;;;3.87;2.27;;;;;;;19.55;63.68;97409.13;20143306;29;20240;-59
2023/01/03 05:43:33;;;;;;;5.67;2.50;;;;;;;19.54;63.31;97423.72;20164874;29;20217;-59
2023/01/03 05:53:30;;;;;;;4.47;2.27;;;;;;;19.54;63.72;97418.31;20170763;29;20228;-59
2023/01/03 06:03:32;;;;;;;4.33;2.17;;;;;;;19.55;63.87;97425.38;20163358;29;20357;-59
2023/01/03 06:13:30;;;;;;;5.00;2.93;;;;;;;19.53;63.55;97424.84;20162200;29;20220;-58
2023/01/03 06:23:29;;;;;;;3.87;2.53;;;;;;;19.53;63.50;97446.50;20145428;29;20280;-60
2023/01/03 06:33:27;;;;;;;4.87;2.90;;;;;;;19.53;63.97;97453.81;20146119;29;20242;-59
2023/01/03 06:43:26;;;;;;;3.93;2.67;;;;;;;19.53;63.58;97464.66;20143836;29;20311;-59
2023/01/03 06:53:26;;;;;;;3.20;2.00;;;;;;;18.95;50.36;97466.69;20158596;29;20233;-52
2023/01/03 07:03:26;;;;;;;3.93;1.93;;;;;;;19.03;55.62;97466.16;20164824;29;20228;-52
2023/01/03 07:23:40;;;;;;;4.00;1.90;;;;;;;19.41;57.60;97491.19;20157588;29;20424;-57
2023/01/03 07:33:39;;;;;;;4.27;2.10;;;;;;;19.46;58.50;97483.88;20164154;29;20291;-60
2023/01/03 07:43:41;;;;;;;7.53;1.80;;;;;;;19.51;59.31;97496.59;20156181;29;20224;-57
2023/01/03 07:53:42;;;;;;;4.37;1.70;;;;;;;19.51;59.82;97502.84;20155260;29;20295;-57
2023/01/03 08:03:45;;;;;;;2.20;1.60;;;;;;;19.55;59.66;97503.13;20153559;29;20243;-59
2023/01/03 08:13:43;;;;;;;3.10;2.00;;;;;;;19.55;59.77;97517.47;20153659;29;20293;-57
2023/01/03 08:23:43;;;;;;;4.00;2.37;;;;;;;19.58;60.53;97520.72;20152865;29;20239;-57
2023/01/03 08:33:46;;;;;;;2.90;1.50;;;;;;;19.60;61.06;97513.16;20152260;29;20475;-58
2023/01/03 08:43:48;;;;;;;7.07;1.70;;;;;;;19.61;60.60;97533.72;20151832;29;20220;-57
2023/01/03 08:53:46;;;;;;;5.70;1.87;;;;;;;19.65;61.23;97532.94;20151039;29;20239;-57
2023/01/03 09:03:47;;;;;;;4.07;1.80;;;;;;;19.65;61.19;97545.66;20150563;29;20253;-58
2023/01/03 09:13:45;;;;;;;2.80;1.50;;;;;;;19.66;61.46;97558.13;20149708;29;20228;-57
2023/01/03 09:23:47;;;;;;;6.50;1.93;;;;;;;19.67;61.59;97557.84;20133302;29;20229;-57
2023/01/03 09:33:45;;;;;;;2.40;1.57;;;;;;;19.68;61.76;97558.66;20149291;29;20239;-57
2023/01/03 09:43:46;;;;;;;3.27;1.60;;;;;;;19.72;61.71;97576.84;20132694;29;20228;-57
2023/01/03 10:04:16;;;;;;;10.60;2.00;;;;;;;19.73;61.68;97578.47;20148449;29;20224;-57
2023/01/03 10:14:31;;;;;;;4.27;2.00;;;;;;;19.74;61.85;97579.28;20148310;29;20235;-55
2023/01/03 10:24:32;;;;;;;8.27;2.17;;;;;;;19.71;61.70;97577.94;20134014;29;20244;-55
2023/01/03 10:34:30;;;;;;;9.53;1.70;;;;;;;19.80;61.48;97587.16;20145131;29;20240;-57
2023/01/03 10:44:32;;;;;;;3.97;1.63;;;;;;;19.99;61.16;97576.59;20161097;29;20219;-56
2023/01/03 10:54:44;;;;;;;14.07;4.97;;;;;;;19.78;52.43;97555.97;20159833;29;20226;-55
2023/01/03 11:04:43;;;;;;;46.03;13.13;;;;;;;19.60;53.54;97545.66;20187357;29;20418;-54
2023/01/03 11:14:54;;;;;;;56.03;16.00;;;;;;;20.10;55.70;97542.97;20196754;29;20297;-55
2023/01/03 11:25:16;;;;;;;58.43;14.60;;;;;;;20.34;57.03;97545.94;20160133;29;20248;-56
2023/01/03 11:35:34;;;;;;;50.30;14.37;;;;;;;20.46;57.47;97536.44;20156815;29;20236;-55
2023/01/03 11:45:51;;;;;;;17.00;5.13;;;;;;;19.53;52.10;97529.66;20156400;29;20220;-57
2023/01/03 11:56:06;;;;;;;11.73;3.87;;;;;;;20.05;52.98;97522.09;20155002;29;20236;-55
2023/01/03 12:06:13;;;;;;;11.53;4.03;;;;;;;20.19;53.39;97514.22;20154336;29;20231;-56
2023/01/03 12:16:18;;;;;;;12.13;3.73;;;;;;;20.21;54.54;97506.63;20153093;29;20259;-56
2023/01/03 12:26:17;;;;;;;10.90;3.80;;;;;;;20.18;54.80;97509.06;20152667;29;20232;-56
2023/01/03 12:36:27;;;;;;;14.73;4.13;;;;;;;20.13;55.24;97504.47;20151695;29;20228;-57
2023/01/03 12:46:32;;;;;;;10.47;3.20;;;;;;;20.07;56.48;97500.94;20150505;29;20260;-56
2023/01/03 12:56:53;;;;;;;13.30;3.40;;;;;;;20.03;56.61;97499.03;20150420;29;20221;-56
2023/01/03 13:07:00;;;;;;;10.10;3.13;;;;;;;19.99;57.23;97482.53;20150010;29;20483;-55
2023/01/03 13:17:05;;;;;;;10.63;3.47;;;;;;;19.99;57.72;97484.44;20149419;29;20228;-54
2023/01/03 13:27:35;;;;;;;12.23;3.07;;;;;;;19.97;58.17;97479.25;20149068;29;20228;-54
2023/01/03 13:37:44;;;;;;;10.10;3.00;;;;;;;19.96;58.48;97476.84;20148947;29;20574;-61
2023/01/03 13:47:46;;;;;;;13.10;3.40;;;;;;;19.96;58.73;97466.00;20148137;29;20555;-61
2023/01/03 13:57:53;;;;;;;10.90;3.30;;;;;;;19.93;59.00;97464.66;20147820;29;20422;-60
2023/01/03 14:08:02;;;;;;;9.70;3.33;;;;;;;19.92;59.17;97476.56;20162345;29;20231;-61
2023/01/03 14:18:11;;;;;;;10.93;3.07;;;;;;;19.94;58.87;97470.84;20143812;29;20248;-59
2023/01/03 14:28:19;;;;;;;12.13;3.20;;;;;;;19.91;59.33;97471.41;20158746;29;20217;-62
2023/01/03 14:38:24;;;;;;;9.30;3.00;;;;;;;19.89;59.39;97473.59;20147480;29;20308;-59
2023/01/03 14:48:24;;;;;;;5.13;2.60;;;;;;;19.90;59.46;97484.16;20162002;29;20224;-59
2023/01/03 14:58:32;;;;;;;13.57;3.17;;;;;;;19.89;59.87;97489.84;20141941;29;20419;-59
2023/01/03 15:08:34;;;;;;;10.43;3.40;;;;;;;19.88;59.74;97499.06;20141112;29;20443;-58
2023/01/03 15:18:37;;;;;;;8.57;2.90;;;;;;;19.87;60.11;97500.16;20140080;29;20233;-58
2023/01/03 15:28:50;;;;;;;14.83;2.83;;;;;;;19.87;59.89;97497.44;20139499;29;20224;-58
2023/01/03 15:38:48;;;;;;;9.23;3.00;;;;;;;19.88;60.16;97504.47;20155844;29;20270;-59
2023/01/03 15:48:54;;;;;;;16.00;3.03;;;;;;;19.85;61.29;97500.41;20139769;29;20223;-60
2023/01/03 15:58:55;;;;;;;7.97;2.53;;;;;;;19.85;60.82;97510.44;20156198;29;20505;-60
2023/01/03 16:08:57;;;;;;;9.10;2.50;;;;;;;19.83;60.52;97526.97;20153845;29;20212;-60
2023/01/03 16:18:55;;;;;;;9.70;2.73;;;;;;;19.84;60.87;97523.19;20153018;29;20528;-60
2023/01/03 16:28:55;;;;;;;11.57;2.80;;;;;;;19.83;60.67;97524.28;20136356;29;20251;-60
2023/01/03 16:38:53;;;;;;;11.17;2.90;;;;;;;19.82;61.18;97533.47;20135124;29;20236;-57
2023/01/03 16:48:55;;;;;;;13.53;3.33;;;;;;;19.82;61.25;97535.38;20134426;29;20221;-58
2023/01/03 16:58:53;;;;;;;9.30;2.33;;;;;;;19.84;61.49;97538.66;20150592;29;20462;-58
2023/01/03 17:08:54;;;;;;;14.20;3.43;;;;;;;19.86;61.38;97552.72;20150009;29;20239;-63
2023/01/03 17:18:54;;;;;;;8.03;2.77;;;;;;;19.86;60.95;97564.38;20161299;29;20228;-62
2023/01/03 17:28:54;;;;;;;8.97;2.37;;;;;;;19.85;61.84;97568.16;20129522;29;20307;-62
2023/01/03 17:38:58;;;;;;;11.40;3.17;;;;;;;19.85;61.98;97564.66;20159275;29;20319;-59
2023/01/03 17:59:16;;;;;;;13.33;2.77;;;;;;;19.81;61.87;97569.00;20162899;29;20225;-59
2023/01/03 18:09:15;;;;;;;11.47;2.80;;;;;;;19.79;62.05;97563.81;20161835;29;20227;-61
2023/01/03 18:19:13;;;;;;;12.50;3.00;;;;;;;19.88;62.14;97553.25;20162502;29;20500;-59
2023/01/03 18:29:15;;;;;;;8.93;2.90;;;;;;;20.04;62.69;97553.00;20160477;29;20241;-61
2023/01/03 18:39:15;;;;;;;13.67;3.00;;;;;;;20.12;61.57;97554.34;20143282;29;20236;-59
2023/01/03 18:49:14;;;;;;;10.00;2.80;;;;;;;20.14;61.82;97571.19;20141232;29;20770;-66
2023/01/03 18:59:19;;;;;;;10.33;2.87;;;;;;;20.09;61.60;97563.84;20142001;29;20564;-64
2023/01/03 19:09:22;;;;;;;11.50;2.60;;;;;;;20.08;61.69;97567.66;20157938;29;20226;-65
2023/01/03 19:19:19;;;;;;;6.70;2.50;;;;;;;20.06;62.37;97574.41;20158451;29;20523;-64
2023/01/03 19:29:22;;;;;;;7.50;2.50;;;;;;;20.05;61.79;97576.34;20158236;29;20228;-63
2023/01/03 19:39:20;;;;;;;9.13;2.50;;;;;;;20.01;62.37;97577.13;20145154;29;20285;-58
2023/01/03 19:49:24;;;;;;;6.73;2.53;;;;;;;19.98;62.81;97580.38;20144527;29;20217;-58
2023/01/03 19:59:26;;;;;;;10.17;2.87;;;;;;;19.96;63.16;97569.00;20135505;29;20246;-60
2023/01/03 20:09:25;;;;;;;7.00;2.60;;;;;;;19.95;63.29;97578.22;20135365;29;20232;-53
2023/01/03 20:19:23;;;;;;;9.37;3.20;;;;;;;19.95;63.05;97564.66;20130651;29;20275;-53
2023/01/03 20:29:23;;;;;;;7.13;2.20;;;;;;;19.94;62.76;97565.72;20128424;29;20220;-54
